createdAt,value
2022-08-05T00:00:16.774Z,101575.31
2022-08-05T00:02:51.505Z,101591.31
2022-08-05T00:06:01.876Z,101585.84
2022-08-05T00:08:32.912Z,101570.72
2022-08-05T00:10:53.446Z,101576.63
2022-08-05T00:13:19.983Z,101578.94
2022-08-05T00:15:55.069Z,101590.25
2022-08-05T00:18:23.480Z,101584.34
2022-08-05T00:20:51.158Z,101584.06
2022-08-05T00:23:44.287Z,101581.69
2022-08-05T00:26:05.727Z,101579.91
2022-08-05T00:28:32.627Z,101586.84
2022-08-05T00:31:02.918Z,101569.88
2022-08-05T00:34:56.662Z,101572.75
2022-08-05T00:37:10.923Z,101588.69
2022-08-05T00:39:04.625Z,101579.28
2022-08-05T00:41:51.712Z,101592.72
2022-08-05T00:44:19.047Z,101585.44
2022-08-05T00:46:47.614Z,101588.50
2022-08-05T00:49:21.053Z,101599.78
2022-08-05T00:51:52.029Z,101591.00
2022-08-05T00:54:19.314Z,101595.13
2022-08-05T00:56:51.836Z,101590.06
2022-08-05T00:59:19.343Z,101584.31
2022-08-05T01:01:49.109Z,101598.16
2022-08-05T01:04:16.182Z,101583.84
2022-08-05T01:06:48.502Z,101595.09
2022-08-05T01:09:17.402Z,101578.88
2022-08-05T01:11:49.715Z,101576.34
2022-08-05T01:14:33.823Z,101573.44
2022-08-05T01:17:05.824Z,101593.16
2022-08-05T01:20:01.880Z,101592.78
2022-08-05T01:22:41.664Z,101592.09
2022-08-05T01:25:55.792Z,101602.59
2022-08-05T01:28:50.430Z,101610.31
2022-08-05T01:31:44.535Z,101616.94
2022-08-05T01:34:32.914Z,101617.34
2022-08-05T01:37:04.005Z,101614.72
2022-08-05T01:39:46.667Z,101598.63
2022-08-05T01:42:18.009Z,101581.31
2022-08-05T01:44:45.723Z,101599.38
2022-08-05T01:47:23.205Z,101602.72
2022-08-05T01:50:01.847Z,101636.41
2022-08-05T01:52:32.247Z,101638.13
2022-08-05T01:55:04.564Z,101620.56
2022-08-05T01:58:09.706Z,101612.00
2022-08-05T02:00:30.511Z,101616.25
2022-08-05T02:03:06.770Z,101625.09
2022-08-05T02:05:53.481Z,101604.56
2022-08-05T02:08:31.160Z,101620.25
2022-08-05T02:11:23.592Z,101617.63
2022-08-05T02:14:27.069Z,101614.19
2022-08-05T02:16:59.410Z,101610.09
2022-08-05T02:19:35.031Z,101621.34
2022-08-05T02:22:03.832Z,101622.34
2022-08-05T02:24:38.110Z,101625.06
2022-08-05T02:27:09.923Z,101637.28
2022-08-05T02:29:58.829Z,101641.03
2022-08-05T02:32:30.975Z,101625.50
2022-08-05T02:35:02.169Z,101611.03
2022-08-05T02:37:43.281Z,101606.59
2022-08-05T02:40:17.030Z,101610.38
2022-08-05T02:42:52.724Z,101600.75
2022-08-05T02:45:24.049Z,101590.38
2022-08-05T02:48:06.711Z,101613.97
2022-08-05T02:50:43.626Z,101588.00
2022-08-05T02:53:16.120Z,101582.75
2022-08-05T02:55:52.155Z,101567.00
2022-08-05T02:58:26.590Z,101608.13
2022-08-05T03:00:56.511Z,101614.59
2022-08-05T03:03:23.447Z,101593.91
2022-08-05T03:06:57.253Z,101591.22
2022-08-05T03:08:42.543Z,101610.91
2022-08-05T03:11:57.640Z,101613.97
2022-08-05T03:14:13.529Z,101615.44
2022-08-05T03:16:40.476Z,101616.22
2022-08-05T03:19:17.080Z,101623.00
2022-08-05T03:21:53.838Z,101612.13
2022-08-05T03:24:29.404Z,101617.75
2022-08-05T03:26:58.640Z,101609.81
2022-08-05T03:29:44.796Z,101600.31
2022-08-05T03:32:14.371Z,101609.97
2022-08-05T03:34:42.715Z,101604.22
2022-08-05T03:37:18.652Z,101600.22
2022-08-05T03:40:01.079Z,101608.34
2022-08-05T03:42:29.171Z,101614.03
2022-08-05T03:44:58.615Z,101606.34
2022-08-05T03:47:25.531Z,101606.91
2022-08-05T03:49:57.428Z,101610.56
2022-08-05T03:52:38.455Z,101621.59
2022-08-05T03:56:04.960Z,101618.44
2022-08-05T03:58:12.427Z,101625.28
2022-08-05T04:00:41.913Z,101615.81
2022-08-05T04:03:15.010Z,101610.66
2022-08-05T04:05:56.786Z,101618.16
2022-08-05T04:08:34.589Z,101619.88
2022-08-05T04:11:04.798Z,101605.00
2022-08-05T04:13:49.915Z,101599.34
2022-08-05T04:16:24.281Z,101597.88
2022-08-05T04:18:57.814Z,101589.97
2022-08-05T04:22:10.163Z,101588.84
2022-08-05T04:24:18.754Z,101620.75
2022-08-05T04:26:46.471Z,101614.72
2022-08-05T04:29:13.184Z,101615.97
2022-08-05T04:31:41.058Z,101611.88
2022-08-05T04:34:31.846Z,101629.78
2022-08-05T04:36:56.329Z,101626.13
2022-08-05T04:39:23.261Z,101610.59
2022-08-05T04:41:51.183Z,101632.91
2022-08-05T04:44:24.487Z,101631.22
2022-08-05T04:46:58.818Z,101631.63
2022-08-05T04:49:38.894Z,101628.13
2022-08-05T04:52:13.032Z,101624.00
2022-08-05T04:54:39.574Z,101626.00
2022-08-05T04:57:06.266Z,101633.28
2022-08-05T04:59:38.608Z,101625.38
2022-08-05T05:02:41.270Z,101644.72
2022-08-05T05:04:53.094Z,101644.72
2022-08-05T05:07:29.728Z,101642.75
2022-08-05T05:09:59.669Z,101637.38
2022-08-05T05:12:29.390Z,101643.44
2022-08-05T05:14:55.914Z,101635.50
2022-08-05T05:17:24.532Z,101645.69
2022-08-05T05:19:55.219Z,101653.88
2022-08-05T05:22:26.312Z,101648.78
2022-08-05T05:24:59.862Z,101649.19
2022-08-05T05:27:44.137Z,101650.19
2022-08-05T05:30:29.556Z,101657.81
2022-08-05T05:33:00.825Z,101637.50
2022-08-05T05:35:31.577Z,101635.28
2022-08-05T05:38:09.502Z,101651.41
2022-08-05T05:40:48.327Z,101640.09
2022-08-05T05:43:27.736Z,101651.97
2022-08-05T05:46:05.107Z,101653.94
2022-08-05T05:48:32.451Z,101656.41
2022-08-05T05:51:15.189Z,101669.25
2022-08-05T05:53:54.062Z,101664.56
2022-08-05T05:56:31.840Z,101664.44
2022-08-05T05:59:03.241Z,101658.16
2022-08-05T06:01:36.933Z,101678.78
2022-08-05T06:04:07.264Z,101670.81
2022-08-05T06:06:34.828Z,101675.19
2022-08-05T06:09:03.201Z,101686.69
2022-08-05T06:11:31.042Z,101682.72
2022-08-05T06:13:57.859Z,101674.13
2022-08-05T06:16:32.708Z,101688.38
2022-08-05T06:19:01.257Z,101698.72
2022-08-05T06:21:35.900Z,101676.44
2022-08-05T06:24:11.619Z,101671.69
2022-08-05T06:26:51.531Z,101693.00
2022-08-05T06:29:43.121Z,101687.19
2022-08-05T06:32:26.186Z,101690.81
2022-08-05T06:34:57.202Z,101678.91
2022-08-05T06:37:56.390Z,101693.66
2022-08-05T06:40:13.735Z,101696.03
2022-08-05T06:42:40.610Z,101700.03
2022-08-05T06:45:08.518Z,101687.00
2022-08-05T06:48:47.408Z,101684.13
2022-08-05T06:50:23.684Z,101686.22
2022-08-05T06:52:58.663Z,101695.00
2022-08-05T06:55:30.030Z,101699.13
2022-08-05T06:58:29.580Z,101697.50
2022-08-05T07:00:49.415Z,101679.03
2022-08-05T07:03:17.015Z,101683.53
2022-08-05T07:05:44.084Z,101680.97
2022-08-05T07:08:13.069Z,101692.69
2022-08-05T07:10:52.865Z,101696.81
2022-08-05T07:13:58.256Z,101714.88
2022-08-05T07:17:56.402Z,101722.75
2022-08-05T07:22:28.943Z,101723.59
2022-08-05T07:25:24.010Z,101729.25
2022-08-05T07:28:00.688Z,101730.00
2022-08-05T07:30:33.758Z,101740.41
2022-08-05T07:33:08.866Z,101744.78
2022-08-05T07:35:55.602Z,101753.75
2022-08-05T07:38:33.618Z,101748.28
2022-08-05T07:42:09.396Z,101757.91
2022-08-05T07:43:59.187Z,101756.28
2022-08-05T07:46:28.063Z,101745.81
2022-08-05T07:49:02.984Z,101767.63
2022-08-05T07:51:40.577Z,101765.69
2022-08-05T07:54:15.216Z,101741.69
2022-08-05T07:57:01.506Z,101749.94
2022-08-05T07:59:38.908Z,101767.53
2022-08-05T08:02:16.554Z,101764.19
2022-08-05T08:04:45.471Z,101760.81
2022-08-05T08:07:13.198Z,101749.69
2022-08-05T08:09:40.182Z,101769.22
2022-08-05T08:12:16.494Z,101766.78
2022-08-05T08:14:54.026Z,101758.84
2022-08-05T08:17:21.445Z,101768.66
2022-08-05T08:20:21.697Z,101777.13
2022-08-05T08:22:35.173Z,101763.81
2022-08-05T08:25:01.984Z,101768.19
2022-08-05T08:27:35.659Z,101786.22
2022-08-05T08:30:19.609Z,101782.63
2022-08-05T08:32:54.740Z,101778.44
2022-08-05T08:35:21.333Z,101779.66
2022-08-05T08:37:53.572Z,101782.72
2022-08-05T08:40:23.743Z,101781.06
2022-08-05T08:42:52.962Z,101789.00
2022-08-05T08:45:27.063Z,101798.66
2022-08-05T08:48:11.849Z,101774.09
2022-08-05T08:51:03.885Z,101796.63
2022-08-05T08:53:40.335Z,101803.91
2022-08-05T08:56:11.837Z,101787.97
2022-08-05T08:58:44.539Z,101803.84
2022-08-05T09:01:16.241Z,101813.81
2022-08-05T09:03:57.555Z,101813.00
2022-08-05T09:06:29.260Z,101798.94
2022-08-05T09:08:58.324Z,101816.34
2022-08-05T09:11:51.638Z,101821.59
2022-08-05T09:14:56.727Z,101828.75
2022-08-05T09:17:08.126Z,101819.09
2022-08-05T09:20:01.971Z,101833.47
2022-08-05T09:22:31.750Z,101814.72
2022-08-05T09:25:13.493Z,101826.53
2022-08-05T09:28:04.169Z,101830.59
2022-08-05T09:30:27.374Z,101823.81
2022-08-05T09:33:01.423Z,101832.91
2022-08-05T09:35:29.449Z,101844.09
2022-08-05T09:38:17.510Z,101839.56
2022-08-05T09:40:51.773Z,101849.53
2022-08-05T09:43:45.693Z,101853.94
2022-08-05T09:46:28.340Z,101863.22
2022-08-05T09:49:07.595Z,101860.50
2022-08-05T09:51:44.066Z,101852.69
2022-08-05T09:54:21.350Z,101863.22
2022-08-05T09:56:56.075Z,101856.44
2022-08-05T09:59:27.624Z,101869.66
2022-08-05T10:01:57.933Z,101869.47
2022-08-05T10:04:35.936Z,101872.19
2022-08-05T10:07:20.575Z,101855.63
2022-08-05T10:10:14.325Z,101884.03
2022-08-05T10:12:49.603Z,101886.56
2022-08-05T10:15:21.037Z,101884.88
2022-08-05T10:18:07.152Z,101890.97
2022-08-05T10:20:36.035Z,101894.00
2022-08-05T10:23:02.787Z,101888.59
2022-08-05T10:25:30.331Z,101884.19
2022-08-05T10:28:13.937Z,101887.56
2022-08-05T10:32:47.786Z,101891.13
2022-08-05T10:33:35.250Z,101888.28
2022-08-05T10:36:04.473Z,101896.59
2022-08-05T10:38:33.377Z,101886.81
2022-08-05T10:41:03.903Z,101896.22
2022-08-05T10:43:37.017Z,101891.09
2022-08-05T10:46:08.497Z,101898.59
2022-08-05T10:48:58.137Z,101909.13
2022-08-05T10:51:57.788Z,101908.06
2022-08-05T10:54:46.885Z,101916.06
2022-08-05T10:57:29.573Z,101905.75
2022-08-05T11:00:20.546Z,101927.84
2022-08-05T11:03:23.032Z,101932.19
2022-08-05T11:06:03.980Z,101926.50
2022-08-05T11:08:38.187Z,101931.78
2022-08-05T11:11:41.947Z,101931.16
2022-08-05T11:14:13.281Z,101934.69
2022-08-05T11:16:56.016Z,101933.69
2022-08-05T11:20:16.773Z,101934.72
2022-08-05T11:22:37.363Z,101946.13
2022-08-05T11:26:05.069Z,101938.91
2022-08-05T11:28:17.241Z,101951.97
2022-08-05T11:30:58.579Z,101955.16
2022-08-05T11:33:43.728Z,101936.44
2022-08-05T11:36:16.321Z,101952.03
2022-08-05T11:39:01.550Z,101956.06
2022-08-05T11:41:58.204Z,101956.00
2022-08-05T11:44:40.257Z,101942.16
2022-08-05T11:47:14.068Z,101968.75
2022-08-05T11:49:43.331Z,101968.31
2022-08-05T11:52:29.275Z,101972.00
2022-08-05T11:54:58.355Z,101966.38
2022-08-05T11:57:39.333Z,101988.91
2022-08-05T12:00:31.645Z,101987.50
2022-08-05T12:02:58.507Z,101991.25
2022-08-05T12:05:36.460Z,101995.94
2022-08-05T12:08:11.765Z,102011.44
2022-08-05T12:10:48.799Z,102006.25
2022-08-05T12:13:27.899Z,102017.09
2022-08-05T12:16:17.441Z,102007.88
2022-08-05T12:18:52.483Z,102013.78
2022-08-05T12:21:31.841Z,102016.00
2022-08-05T12:24:07.739Z,102017.78
2022-08-05T12:26:44.020Z,102024.28
2022-08-05T12:29:16.236Z,102019.22
2022-08-05T12:32:01.871Z,102034.50
2022-08-05T12:34:32.016Z,102021.44
2022-08-05T12:37:01.352Z,102021.25
2022-08-05T12:39:37.449Z,102031.63
2022-08-05T12:42:17.977Z,102033.47
2022-08-05T12:44:47.454Z,102038.63
2022-08-05T12:47:26.533Z,102038.69
2022-08-05T12:50:04.252Z,102046.81
2022-08-05T12:52:38.740Z,102046.75
2022-08-05T12:55:25.458Z,102044.41
2022-08-05T12:58:48.828Z,102050.97
2022-08-05T13:02:00.180Z,102060.97
2022-08-05T13:03:33.129Z,102057.19
2022-08-05T13:06:01.331Z,102047.66
2022-08-05T13:08:32.341Z,102065.50
2022-08-05T13:11:00.893Z,102062.94
2022-08-05T13:14:06.379Z,102071.22
2022-08-05T13:16:16.739Z,102067.53
2022-08-05T13:18:57.851Z,102066.91
2022-08-05T13:21:28.117Z,102062.06
2022-08-05T13:24:04.502Z,102070.38
2022-08-05T13:26:31.110Z,102067.16
2022-08-05T13:28:59.348Z,102088.75
2022-08-05T13:31:34.018Z,102075.63
2022-08-05T13:34:20.917Z,102081.06
2022-08-05T13:36:53.496Z,102083.59
2022-08-05T13:39:24.534Z,102088.28
2022-08-05T13:42:07.467Z,102096.03
2022-08-05T13:44:45.021Z,102104.09
2022-08-05T13:47:35.996Z,102080.94
2022-08-05T13:50:04.637Z,102100.31
2022-08-05T13:52:35.269Z,102108.16
2022-08-05T13:55:02.436Z,102091.81
2022-08-05T13:57:51.483Z,102098.19
2022-08-05T14:00:27.624Z,102106.81
2022-08-05T14:02:55.527Z,102117.84
2022-08-05T14:05:48.574Z,102115.19
2022-08-05T14:08:19.878Z,102116.31
2022-08-05T14:10:48.404Z,102125.44
2022-08-05T14:13:15.472Z,102119.16
2022-08-05T14:16:04.817Z,102116.22
2022-08-05T14:18:29.218Z,102121.28
2022-08-05T14:20:55.837Z,102127.63
2022-08-05T14:23:26.047Z,102131.50
2022-08-05T14:25:58.465Z,102130.66
2022-08-05T14:28:27.584Z,102138.31
2022-08-05T14:30:59.054Z,102132.56
2022-08-05T14:33:25.741Z,102139.19
2022-08-05T14:35:54.449Z,102141.28
2022-08-05T14:38:31.961Z,102135.88
2022-08-05T14:41:06.266Z,102139.84
2022-08-05T14:43:59.451Z,102141.91
2022-08-05T14:46:28.186Z,102144.19
2022-08-05T14:48:57.266Z,102143.22
2022-08-05T14:51:23.771Z,102139.66
2022-08-05T14:54:06.754Z,102135.53
2022-08-05T14:56:38.111Z,102136.47
2022-08-05T14:59:11.358Z,102137.19
2022-08-05T15:01:47.963Z,102157.47
2022-08-05T15:04:15.284Z,102145.59
2022-08-05T15:06:42.174Z,102146.41
2022-08-05T15:09:16.069Z,102153.06
2022-08-05T15:12:03.900Z,102153.38
2022-08-05T15:14:35.773Z,102154.50
2022-08-05T15:17:44.249Z,102145.69
2022-08-05T15:19:56.097Z,102148.09
2022-08-05T15:22:26.979Z,102151.53
2022-08-05T15:24:55.829Z,102149.81
2022-08-05T15:27:22.315Z,102158.81
2022-08-05T15:29:52.795Z,102147.88
2022-08-05T15:32:28.574Z,102157.88
2022-08-05T15:34:56.148Z,102156.59
2022-08-05T15:38:32.775Z,102161.19
2022-08-05T15:41:04.195Z,102165.50
2022-08-05T15:43:01.620Z,102174.09
2022-08-05T15:45:43.570Z,102170.19
2022-08-05T15:48:14.390Z,102161.56
2022-08-05T15:50:41.620Z,102164.66
2022-08-05T15:53:10.744Z,102186.34
2022-08-05T15:56:01.925Z,102181.31
2022-08-05T15:58:26.463Z,102179.88
2022-08-05T16:01:04.319Z,102175.97
2022-08-05T16:03:40.943Z,102184.19
2022-08-05T16:06:08.387Z,102179.66
2022-08-05T16:08:38.238Z,102194.25
2022-08-05T16:11:05.082Z,102202.13
2022-08-05T16:13:31.936Z,102208.63
2022-08-05T16:16:03.382Z,102191.34
2022-08-05T16:18:30.556Z,102199.91
2022-08-05T16:20:57.430Z,102186.50
2022-08-05T16:23:24.233Z,102192.63
2022-08-05T16:25:55.824Z,102191.75
2022-08-05T16:28:24.234Z,102198.09
2022-08-05T16:30:52.199Z,102195.50
2022-08-05T16:33:19.429Z,102189.22
2022-08-05T16:35:49.895Z,102199.44
2022-08-05T16:38:25.631Z,102197.72
2022-08-05T16:41:00.578Z,102194.53
2022-08-05T16:43:30.433Z,102206.81
2022-08-05T16:46:04.851Z,102203.56
2022-08-05T16:48:36.430Z,102208.91
2022-08-05T16:51:08.759Z,102213.13
2022-08-05T16:54:04.249Z,102211.50
2022-08-05T16:56:24.823Z,102217.63
2022-08-05T16:58:51.530Z,102221.44
2022-08-05T17:01:18.913Z,102222.34
2022-08-05T17:03:46.021Z,102217.00
2022-08-05T17:06:12.949Z,102228.06
2022-08-05T17:08:52.854Z,102220.16
2022-08-05T17:11:25.189Z,102228.88
2022-08-05T17:14:05.511Z,102229.41
2022-08-05T17:16:36.123Z,102236.81
2022-08-05T17:19:07.533Z,102250.44
2022-08-05T17:21:37.267Z,102237.69
2022-08-05T17:24:19.496Z,102258.41
2022-08-05T17:26:56.283Z,102240.31
2022-08-05T17:29:33.887Z,102236.81
2022-08-05T17:32:11.875Z,102242.78
2022-08-05T17:34:49.119Z,102254.97
2022-08-05T17:37:39.440Z,102245.13
2022-08-05T17:40:10.303Z,102257.34
2022-08-05T17:42:41.830Z,102260.38
2022-08-05T17:45:20.596Z,102262.06
2022-08-05T17:47:53.394Z,102278.34
2022-08-05T17:50:28.888Z,102286.31
2022-08-05T17:53:01.337Z,102293.16
2022-08-05T17:55:37.353Z,102276.88
2022-08-05T17:58:09.624Z,102291.56
2022-08-05T18:00:40.771Z,102296.28
2022-08-05T18:03:28.185Z,102293.31
2022-08-05T18:06:04.002Z,102270.13
2022-08-05T18:08:33.036Z,102313.56
2022-08-05T18:11:00.972Z,102316.75
2022-08-05T18:13:36.829Z,102313.97
2022-08-05T18:16:13.522Z,102318.28
2022-08-05T18:18:41.373Z,102308.22
2022-08-05T18:21:21.225Z,102318.06
2022-08-05T18:23:49.829Z,102329.19
2022-08-05T18:26:20.948Z,102336.28
2022-08-05T18:28:54.709Z,102344.53
2022-08-05T18:31:23.464Z,102338.59
2022-08-05T18:33:51.742Z,102341.16
2022-08-05T18:36:19.264Z,102334.28
2022-08-05T18:38:46.648Z,102350.56
2022-08-05T18:41:56.462Z,102350.09
2022-08-05T18:44:06.670Z,102356.06
2022-08-05T18:46:34.564Z,102362.13
2022-08-05T18:49:23.341Z,102360.72
2022-08-05T18:52:15.493Z,102363.56
2022-08-05T18:54:45.956Z,102361.16
2022-08-05T18:57:15.010Z,102357.56
2022-08-05T19:00:01.702Z,102367.22
2022-08-05T19:02:29.072Z,102365.94
2022-08-05T19:05:02.460Z,102368.19
2022-08-05T19:07:47.704Z,102367.25
2022-08-05T19:10:15.109Z,102367.91
2022-08-05T19:12:43.117Z,102369.34
2022-08-05T19:15:25.219Z,102391.34
2022-08-05T19:18:08.739Z,102392.84
2022-08-05T19:20:41.785Z,102394.50
2022-08-05T19:24:03.556Z,102395.25
2022-08-05T19:26:02.547Z,102396.34
2022-08-05T19:28:34.816Z,102403.88
2022-08-05T19:31:01.493Z,102404.69
2022-08-05T19:33:36.224Z,102410.53
2022-08-05T19:36:06.990Z,102420.66
2022-08-05T19:38:37.051Z,102408.75
2022-08-05T19:41:07.205Z,102417.78
2022-08-05T19:44:05.805Z,102418.41
2022-08-05T19:46:29.483Z,102425.84
2022-08-05T19:48:57.778Z,102417.16
2022-08-05T19:52:05.070Z,102434.16
2022-08-05T19:54:21.903Z,102421.13
2022-08-05T19:56:56.216Z,102438.81
2022-08-05T19:59:55.476Z,102434.75
2022-08-05T20:02:11.027Z,102442.53
2022-08-05T20:04:38.168Z,102449.72
2022-08-05T20:07:13.184Z,102432.28
2022-08-05T20:09:54.143Z,102457.19
2022-08-05T20:12:23.457Z,102443.28
2022-08-05T20:14:52.469Z,102452.94
2022-08-05T20:17:19.839Z,102458.63
2022-08-05T20:19:50.621Z,102450.34
2022-08-05T20:22:17.296Z,102467.34
2022-08-05T20:24:47.104Z,102467.22
2022-08-05T20:27:15.826Z,102462.72
2022-08-05T20:29:42.598Z,102471.38
2022-08-05T20:32:25.160Z,102481.53
2022-08-05T20:34:51.959Z,102469.91
2022-08-05T20:38:04.909Z,102475.53
2022-08-05T20:40:05.807Z,102479.94
2022-08-05T20:42:33.247Z,102479.56
2022-08-05T20:44:59.760Z,102485.91
2022-08-05T20:47:32.210Z,102494.56
2022-08-05T20:49:59.381Z,102501.44
2022-08-05T20:52:26.341Z,102501.69
2022-08-05T20:54:59.703Z,102500.22
2022-08-05T20:57:43.942Z,102507.16
2022-08-05T21:00:40.310Z,102498.97
2022-08-05T21:03:06.959Z,102500.31
2022-08-05T21:05:47.601Z,102503.13
2022-08-05T21:08:20.927Z,102493.34
2022-08-05T21:10:53.605Z,102505.53
2022-08-05T21:13:26.582Z,102502.75
2022-08-05T21:16:09.117Z,102507.72
2022-08-05T21:18:35.830Z,102509.78
2022-08-05T21:21:02.468Z,102508.66
2022-08-05T21:23:29.261Z,102511.06
2022-08-05T21:26:04.235Z,102509.94
2022-08-05T21:28:48.044Z,102519.41
2022-08-05T21:31:17.995Z,102513.19
2022-08-05T21:33:47.878Z,102526.22
2022-08-05T21:36:27.504Z,102528.78
2022-08-05T21:38:56.717Z,102525.22
2022-08-05T21:41:24.646Z,102527.53
2022-08-05T21:44:03.828Z,102536.31
2022-08-05T21:46:34.624Z,102525.69
2022-08-05T21:49:04.576Z,102527.38
2022-08-05T21:52:22.219Z,102526.69
2022-08-05T21:54:27.908Z,102532.16
2022-08-05T21:57:29.277Z,102526.41
2022-08-05T22:00:02.930Z,102536.59
2022-08-05T22:02:30.710Z,102526.66
2022-08-05T22:04:58.809Z,102544.47
2022-08-05T22:07:54.167Z,102539.09
2022-08-05T22:10:26.651Z,102538.81
2022-08-05T22:12:54.098Z,102542.03
2022-08-05T22:16:02.654Z,102538.16
2022-08-05T22:18:07.245Z,102543.66
2022-08-05T22:20:39.151Z,102549.03
2022-08-05T22:24:03.171Z,102543.66
2022-08-05T22:26:31.270Z,102546.13
2022-08-05T22:28:58.115Z,102542.91
2022-08-05T22:31:24.929Z,102553.72
2022-08-05T22:34:01.320Z,102558.25
2022-08-05T22:36:29.582Z,102560.69
2022-08-05T22:38:56.833Z,102561.66
2022-08-05T22:42:05.044Z,102556.03
2022-08-05T22:44:12.094Z,102553.03
2022-08-05T22:46:40.055Z,102564.84
2022-08-05T22:49:23.620Z,102571.16
2022-08-05T22:52:04.911Z,102564.59
2022-08-05T22:54:33.459Z,102574.00
2022-08-05T22:57:01.728Z,102575.66
2022-08-05T22:59:48.449Z,102579.31
2022-08-05T23:02:28.921Z,102583.69
2022-08-05T23:04:57.878Z,102585.06
2022-08-05T23:07:28.678Z,102583.16
2022-08-05T23:10:01.143Z,102586.91
2022-08-05T23:12:32.431Z,102584.75
2022-08-05T23:15:03.503Z,102596.13
2022-08-05T23:17:35.019Z,102591.41
2022-08-05T23:20:10.511Z,102595.69
2022-08-05T23:22:43.605Z,102595.47
2022-08-05T23:25:13.917Z,102602.97
2022-08-05T23:27:57.913Z,102588.63
2022-08-05T23:30:29.240Z,102596.53
2022-08-05T23:32:57.946Z,102601.47
2022-08-05T23:35:28.577Z,102602.31
2022-08-05T23:38:01.585Z,102593.75
2022-08-05T23:40:28.285Z,102604.88
2022-08-05T23:42:54.858Z,102610.41
2022-08-05T23:45:23.739Z,102601.84
2022-08-05T23:47:53.804Z,102599.28
2022-08-05T23:50:26.060Z,102601.97
2022-08-05T23:52:55.248Z,102611.28
2022-08-05T23:55:22.402Z,102613.41
2022-08-05T23:57:52.917Z,102607.19
